Time;durP1;ratioP1;P1;durP2;ratioP2;P2;SDS_P1;SDS_P2;PMS_P1;PMS_P2;Temp;Humidity;BMP_temperature;BMP_pressure;BME280_temperature;BME280_humidity;BME280_pressure;Samples;Min_cycle;Max_cycle;Signal;HPM_P1;HPM_P2
2022/01/10 00:01:48;;;;;;;4.60;2.20;;;6.20;91.00;;;6.75;61.78;98073.91;4946062;28;124898;-85
2022/01/10 00:04:14;;;;;;;6.50;2.43;;;6.20;90.90;;;6.76;61.75;98075.50;4946861;28;124384;-86
2022/01/10 00:06:41;;;;;;;3.87;2.10;;;6.20;90.90;;;6.77;61.90;98082.66;4940105;28;114543;-85
2022/01/10 00:09:07;;;;;;;6.33;2.50;;;6.30;90.90;;;6.76;61.79;98075.50;4952340;28;114910;-80
2022/01/10 00:11:34;;;;;;;9.27;2.90;;;6.20;90.80;;;6.77;61.52;98084.56;4944143;28;123943;-83
2022/01/10 00:14:01;;;;;;;6.00;2.47;;;6.20;90.80;;;6.75;61.70;98079.41;4946290;28;124001;-81
2022/01/10 00:16:27;;;;;;;4.33;2.73;;;6.20;90.80;;;6.76;61.66;98088.44;4952788;28;114317;-84
2022/01/10 00:18:53;;;;;;;4.80;2.60;;;6.20;90.80;;;6.75;61.45;98090.38;4953049;28;113897;-84
2022/01/10 00:21:20;;;;;;;3.83;2.30;;;6.30;90.80;;;6.76;61.44;98092.00;4981334;28;123484;-85
2022/01/10 00:23:46;;;;;;;8.00;2.63;;;6.30;90.80;;;6.77;62.17;98088.13;4953777;28;123850;-85
2022/01/10 00:26:13;;;;;;;6.27;2.57;;;6.30;90.80;;;6.77;61.57;98090.06;4953544;28;114125;-83
2022/01/10 00:28:40;;;;;;;2.57;1.93;;;6.30;90.80;;;6.77;61.61;98087.31;4951096;28;114077;-86
2022/01/10 00:31:07;;;;;;;5.10;2.30;;;6.30;90.80;;;6.78;61.53;98086.22;4981306;28;124362;-85
2022/01/10 00:33:33;;;;;;;4.20;2.30;;;6.40;90.80;;;6.78;62.09;98088.94;4953910;28;123711;-84
2022/01/10 00:36:00;;;;;;;7.40;2.80;;;6.30;90.80;;;6.77;61.84;98098.28;4950716;28;114380;-83
2022/01/10 00:38:26;;;;;;;3.20;2.50;;;6.30;90.70;;;6.75;61.48;98089.56;4950220;28;113997;-86
2022/01/10 00:40:53;;;;;;;3.87;2.63;;;6.20;90.70;;;6.74;61.31;98104.38;4960284;28;123889;-85
2022/01/10 00:43:30;;;;;;;4.20;2.93;;;6.50;90.80;;;6.73;61.53;98098.09;4954670;28;124367;-84
2022/01/10 00:45:58;;;;;;;5.00;2.90;;;6.30;90.70;;;6.72;62.07;98104.72;4961188;28;114503;-82
2022/01/10 00:48:24;;;;;;;4.80;2.43;;;6.40;90.70;;;6.71;61.69;98105.81;4942722;28;114238;-85
2022/01/10 00:50:51;;;;;;;3.63;2.40;;;6.20;90.70;;;6.71;61.71;98114.03;4954522;28;123962;-84
2022/01/10 00:53:17;;;;;;;3.90;2.40;;;6.20;90.60;;;6.71;61.66;98110.50;4949857;28;123823;-82
2022/01/10 00:55:44;;;;;;;3.60;2.37;;;6.20;90.60;;;6.70;61.83;98109.69;4949755;28;114815;-85
2022/01/10 00:58:11;;;;;;;4.07;2.43;;;6.20;90.60;;;6.70;61.91;98119.84;4948900;28;115349;-79
2022/01/10 01:00:38;;;;;;;3.40;2.33;;;6.20;90.60;;;6.71;61.10;98116.78;4949739;28;123770;-81
2022/01/10 01:03:04;;;;;;;5.07;3.10;;;6.20;90.60;;;6.73;61.57;98120.06;4952725;28;124359;-83
2022/01/10 01:05:34;;;;;;;6.10;2.83;;;6.20;90.60;;;6.75;61.30;98125.25;4948706;28;114406;-80
2022/01/10 01:08:05;;;;;;;5.10;2.43;;;6.20;90.70;;;6.76;61.76;98132.34;4956737;28;114115;-85
2022/01/10 01:24:08;;;;;;;3.87;3.27;;;6.20;90.80;;;6.74;61.69;98156.56;4948819;28;124265;-82
2022/01/10 01:26:39;;;;;;;7.83;3.63;;;6.20;90.80;;;6.76;62.22;98162.56;4941692;28;114157;-82
2022/01/10 01:29:08;;;;;;;7.90;3.43;;;6.20;90.80;;;6.76;61.92;98162.56;4945820;28;113929;-82
2022/01/10 01:31:35;;;;;;;6.13;3.53;;;6.60;91.00;;;6.78;61.47;98168.56;4946644;28;125875;-79
2022/01/10 01:34:03;;;;;;;4.30;3.33;;;6.20;90.80;;;6.79;61.68;98173.75;4954189;28;123656;-83
2022/01/10 01:36:31;;;;;;;5.83;3.50;;;6.20;90.80;;;6.79;62.30;98184.72;4957069;28;114504;-83
2022/01/10 01:38:58;;;;;;;6.30;3.23;;;6.40;90.90;;;6.81;61.79;98181.69;4961033;28;113998;-83
2022/01/10 01:43:59;;;;;;;5.67;3.30;;;6.30;90.90;;;6.81;61.61;98182.50;4979588;28;124008;-81
2022/01/10 01:46:26;;;;;;;3.67;3.17;;;6.30;90.90;;;6.81;62.02;98187.19;4971935;28;113596;-82
2022/01/10 01:48:54;;;;;;;5.23;3.77;;;6.40;91.00;;;6.83;61.51;98194.00;4954590;28;114980;-79
2022/01/10 01:51:22;;;;;;;5.80;3.70;;;6.30;91.00;;;6.82;62.37;98194.28;4957711;28;123060;-80
2022/01/10 01:53:49;;;;;;;6.30;3.93;;;6.30;91.00;;;6.82;61.68;98195.13;4981436;28;123226;-81
2022/01/10 01:56:17;;;;;;;6.10;3.47;;;6.30;91.00;;;6.82;61.97;98195.13;4950060;28;114179;-84
2022/01/10 01:58:45;;;;;;;8.07;4.23;;;6.30;91.00;;;6.83;62.44;98204.16;4949659;28;114202;-84
2022/01/10 02:01:16;;;;;;;7.70;4.67;;;6.30;91.00;;;6.80;61.87;98207.53;4953351;28;123235;-78
2022/01/10 02:03:43;;;;;;;5.57;3.73;;;6.30;91.00;;;6.76;62.00;98203.75;4956840;28;123765;-83
2022/01/10 02:06:10;;;;;;;4.60;3.80;;;6.20;91.00;;;6.71;62.22;98212.06;4980717;28;114052;-82
2022/01/10 02:08:39;;;;;;;4.60;3.03;;;6.20;91.00;;;6.70;62.13;98205.75;4960115;28;113883;-80
2022/01/10 02:11:08;;;;;;;3.77;3.07;;;6.20;91.00;;;6.71;62.44;98214.81;4949818;28;122821;-84
2022/01/10 02:13:35;;;;;;;6.17;4.13;;;6.20;91.10;;;6.71;62.39;98214.81;4955400;28;123581;-82
2022/01/10 02:16:05;;;;;;;9.10;3.80;;;6.30;91.10;;;6.70;62.52;98218.69;4949440;28;114083;-84
2022/01/10 02:18:33;;;;;;;6.60;4.07;;;6.20;91.10;;;6.69;62.71;98222.53;4979011;28;113900;-80
2022/01/10 02:21:03;;;;;;;6.13;4.10;;;6.30;91.10;;;6.70;62.27;98224.16;4951858;28;124474;-84
2022/01/10 02:23:33;;;;;;;9.33;4.13;;;6.20;91.10;;;6.67;62.47;98222.03;4966320;28;122818;-84
2022/01/10 02:26:00;;;;;;;5.30;3.77;;;6.40;91.20;;;6.62;62.56;98228.41;4955707;28;114182;-83
2022/01/10 02:28:27;;;;;;;6.00;3.83;;;6.10;91.20;;;6.62;62.21;98228.41;4950174;28;113199;-80
2022/01/10 02:30:57;;;;;;;7.80;4.40;;;6.10;91.10;;;6.64;62.31;98231.69;4948131;28;123129;-82
2022/01/10 02:33:31;;;;;;;4.63;3.40;;;6.20;91.20;;;6.67;62.95;98241.25;4961856;28;123787;-81
2022/01/10 02:39:07;;;;;;;7.67;4.70;;;6.10;91.20;;;6.66;62.16;98245.91;4938309;28;114849;-82
2022/01/10 02:41:42;;;;;;;5.70;4.43;;;6.20;91.20;;;6.66;62.58;98245.91;4981327;28;123980;-83
2022/01/10 02:44:13;;;;;;;7.27;3.83;;;6.10;91.20;;;6.67;62.58;98247.53;4950684;28;123839;-83
2022/01/10 02:46:41;;;;;;;5.70;3.97;;;6.20;91.20;;;6.68;62.43;98251.09;4950380;28;114166;-82
2022/01/10 02:49:09;;;;;;;7.80;3.90;;;6.10;91.20;;;6.67;62.94;98263.22;4934184;28;113250;-82
2022/01/10 02:51:36;;;;;;;6.57;4.40;;;6.20;91.20;;;6.69;61.98;98255.47;4948482;28;124509;-82
2022/01/10 02:54:03;;;;;;;7.17;4.40;;;6.10;91.20;;;6.70;62.56;98260.66;4950356;28;123879;-80
2022/01/10 02:56:29;;;;;;;7.80;4.60;;;6.20;91.20;;;6.72;62.47;98265.88;4957669;28;113505;-83
2022/01/10 02:58:56;;;;;;;7.57;4.53;;;6.20;91.20;;;6.73;62.89;98270.22;4959082;28;113075;-82
2022/01/10 03:01:22;;;;;;;5.60;4.00;;;6.20;91.20;;;6.74;62.90;98274.59;4954374;28;124236;-83
2022/01/10 03:03:52;;;;;;;5.93;4.63;;;6.20;91.20;;;6.74;62.66;98272.66;4948066;28;123674;-84
2022/01/10 03:06:18;;;;;;;7.03;4.53;;;6.20;91.20;;;6.75;62.32;98274.31;4948644;28;114243;-83
2022/01/10 03:08:45;;;;;;;9.70;4.77;;;6.20;91.20;;;6.76;62.34;98283.34;4952681;28;113949;-79
2022/01/10 03:11:11;;;;;;;12.13;5.10;;;6.20;91.20;;;6.76;62.29;98286.09;4950376;28;124209;-79
2022/01/10 03:13:38;;;;;;;8.60;4.73;;;6.20;91.20;;;6.77;61.96;98295.97;4943479;28;122802;-85
2022/01/10 03:16:05;;;;;;;7.80;4.50;;;7.40;91.70;;;6.79;62.33;98304.72;4951685;28;113981;-82
2022/01/10 03:18:31;;;;;;;10.07;5.33;;;6.20;91.20;;;6.78;62.17;98300.34;4950049;28;113412;-84
2022/01/10 03:20:57;;;;;;;10.77;5.33;;;6.40;91.30;;;6.79;62.73;98299.22;4950311;28;123975;-81
2022/01/10 03:23:25;;;;;;;5.67;3.83;;;6.20;91.20;;;6.80;62.82;98306.38;4952400;28;123516;-85
2022/01/10 03:25:51;;;;;;;6.40;4.57;;;6.30;91.20;;;6.80;62.39;98311.84;4948207;28;115201;-83
2022/01/10 03:28:18;;;;;;;7.60;4.43;;;6.30;91.20;;;6.80;62.52;98322.84;4959531;28;114730;-84
2022/01/10 03:30:44;;;;;;;11.07;4.90;;;6.30;91.20;;;6.81;62.26;98325.25;4935140;28;124003;-84
2022/01/10 03:33:11;;;;;;;6.07;4.53;;;6.30;91.20;;;6.82;62.19;98326.06;4956736;28;123624;-79
2022/01/10 03:35:41;;;;;;;7.90;4.27;;;6.30;91.20;;;6.84;62.27;98326.59;4950913;28;113375;-85
2022/01/10 03:38:08;;;;;;;5.80;4.90;;;6.30;91.20;;;6.83;62.75;98338.72;4948665;28;114316;-83
2022/01/10 03:40:34;;;;;;;8.30;5.00;;;6.30;91.20;;;6.83;62.46;98328.53;4956994;28;123992;-82
2022/01/10 03:43:00;;;;;;;8.60;5.07;;;6.30;91.20;;;6.85;62.41;98334.56;4956303;28;123801;-83
2022/01/10 03:45:27;;;;;;;8.43;4.80;;;6.70;91.40;;;6.86;62.05;98341.66;4978736;28;113503;-84
2022/01/10 03:47:54;;;;;;;9.23;4.03;;;6.40;91.30;;;6.87;62.68;98339.72;4948263;28;113819;-85
2022/01/10 03:50:20;;;;;;;6.67;4.47;;;6.70;91.40;;;6.89;62.72;98336.69;4947287;28;123780;-84
2022/01/10 03:52:47;;;;;;;5.30;4.10;;;6.30;91.20;;;6.88;62.32;98338.63;4958977;28;122832;-84
2022/01/10 03:55:13;;;;;;;7.80;3.80;;;6.30;91.20;;;6.89;62.41;98345.75;4951002;28;114992;-80
2022/01/10 03:57:40;;;;;;;7.30;4.13;;;6.40;91.30;;;6.87;62.20;98350.72;4951105;28;113774;-82
2022/01/10 04:00:09;;;;;;;8.93;4.30;;;6.30;91.20;;;6.85;62.62;98347.44;4949776;28;124219;-82
2022/01/10 04:02:37;;;;;;;5.73;3.87;;;6.30;91.20;;;6.84;62.52;98352.13;4958327;28;122756;-82
2022/01/10 04:05:04;;;;;;;4.00;3.40;;;6.30;91.10;;;6.85;62.27;98355.69;4951455;28;114271;-79
2022/01/10 04:07:31;;;;;;;7.30;3.60;;;6.30;91.10;;;6.85;61.97;98352.94;4954919;28;114057;-83
2022/01/10 04:09:57;;;;;;;5.33;3.30;;;6.30;91.10;;;6.84;62.59;98356.81;4951939;28;124543;-81
2022/01/10 04:12:24;;;;;;;9.50;3.53;;;6.40;91.10;;;6.83;62.00;98358.75;4954999;28;123838;-82
2022/01/10 04:14:51;;;;;;;5.03;3.30;;;6.30;91.10;;;6.81;61.83;98362.91;4953958;28;114732;-83
2022/01/10 04:17:17;;;;;;;7.80;2.60;;;6.30;91.00;;;6.80;62.04;98366.78;4984438;28;114961;-79
2022/01/10 04:19:44;;;;;;;3.20;2.63;;;6.40;91.00;;;6.79;61.71;98367.88;4951899;28;125599;-81
2022/01/10 04:22:11;;;;;;;5.83;2.90;;;6.30;90.90;;;6.77;61.95;98379.16;4968839;28;122993;-82
2022/01/10 04:24:38;;;;;;;5.47;3.10;;;6.30;90.90;;;6.76;61.66;98384.94;4955918;28;113567;-86
2022/01/10 04:27:05;;;;;;;4.40;2.50;;;6.50;91.00;;;6.75;62.13;98388.81;4968138;28;112727;-82
2022/01/10 04:29:32;;;;;;;5.30;3.13;;;6.20;90.80;;;6.73;61.95;98386.34;4959628;28;123246;-82
2022/01/10 04:32:00;;;;;;;5.70;2.90;;;6.20;90.80;;;6.73;61.48;98389.09;4956496;28;123566;-81
2022/01/10 04:34:27;;;;;;;5.97;2.77;;;6.20;90.80;;;6.72;61.57;98387.47;4951231;28;114253;-81
2022/01/10 04:36:53;;;;;;;4.87;2.80;;;6.20;90.80;;;6.73;62.15;98391.84;4952138;28;113797;-80
2022/01/10 04:39:20;;;;;;;4.93;3.10;;;6.20;90.80;;;6.73;61.41;98400.06;4949966;28;123889;-83
2022/01/10 04:41:46;;;;;;;5.60;3.10;;;6.20;90.80;;;6.73;61.86;98397.31;4979485;28;123595;-82
2022/01/10 04:44:13;;;;;;;5.03;3.50;;;6.20;90.80;;;6.73;61.96;98410.25;4950627;28;113825;-83
2022/01/10 04:46:39;;;;;;;6.13;3.03;;;6.20;90.80;;;6.73;62.02;98413.00;4963948;28;113761;-84
2022/01/10 04:49:11;;;;;;;5.70;2.93;;;6.20;90.80;;;6.74;61.70;98411.88;4957281;28;123962;-82
2022/01/10 04:51:38;;;;;;;6.70;3.60;;;6.20;90.80;;;6.73;61.53;98413.81;4949899;28;122907;-81
2022/01/10 04:54:05;;;;;;;5.73;3.63;;;6.20;90.80;;;6.73;61.47;98421.22;4952642;28;114252;-81
2022/01/10 04:56:32;;;;;;;8.10;3.50;;;6.20;90.70;;;6.71;61.49;98428.94;4959884;28;113915;-79
2022/01/10 04:58:59;;;;;;;6.20;3.43;;;6.20;90.70;;;6.68;61.72;98429.53;4950210;28;123431;-80
2022/01/10 05:01:25;;;;;;;7.60;3.60;;;6.20;90.70;;;6.66;61.54;98432.56;4950295;28;123784;-85
2022/01/10 05:03:52;;;;;;;7.97;4.17;;;6.20;90.70;;;6.66;61.31;98439.97;4947960;28;115059;-84
2022/01/10 05:06:18;;;;;;;6.47;4.00;;;6.30;90.80;;;6.64;62.00;98443.84;4948311;28;115383;-79
2022/01/10 05:08:45;;;;;;;4.80;3.93;;;6.20;90.70;;;6.64;61.52;98443.84;4965118;28;123010;-81
2022/01/10 05:11:12;;;;;;;6.10;3.63;;;6.30;90.80;;;6.64;61.55;98452.09;4946309;28;123943;-80
2022/01/10 05:13:39;;;;;;;9.60;4.30;;;6.30;90.80;;;6.64;61.78;98452.09;4952513;28;114178;-81
2022/01/10 05:16:07;;;;;;;7.37;4.23;;;6.10;90.70;;;6.64;61.80;98460.31;4954442;28;114214;-80
2022/01/10 05:18:33;;;;;;;5.07;3.90;;;6.20;90.80;;;6.63;61.41;98455.94;4952790;28;124010;-82
2022/01/10 05:21:00;;;;;;;6.37;4.03;;;6.10;90.80;;;6.66;62.02;98465.50;4936423;28;122248;-83
2022/01/10 05:23:26;;;;;;;8.77;4.93;;;6.10;90.80;;;6.66;61.87;98472.91;4934826;28;114220;-81
2022/01/10 05:25:52;;;;;;;6.60;4.13;;;6.70;91.10;;;6.66;61.91;98475.66;4981087;28;113892;-82
2022/01/10 05:28:19;;;;;;;7.17;4.13;;;6.10;90.80;;;6.67;61.96;98482.81;4953389;28;123980;-81
2022/01/10 05:30:47;;;;;;;8.20;4.10;;;6.10;90.90;;;6.68;62.25;98484.44;4955161;28;124081;-83
2022/01/10 05:33:14;;;;;;;7.63;4.40;;;6.10;90.90;;;6.70;62.30;98493.19;4964665;28;113411;-83
2022/01/10 05:35:44;;;;;;;7.43;3.70;;;6.20;90.90;;;6.69;62.22;98488.81;4956285;28;113962;-82
2022/01/10 05:38:11;;;;;;;6.93;4.67;;;6.40;91.00;;;6.71;61.71;98503.06;4948071;28;124321;-85
2022/01/10 05:40:39;;;;;;;6.83;4.43;;;6.20;90.90;;;6.72;62.02;98499.22;4954028;28;124298;-81
2022/01/10 05:43:06;;;;;;;8.13;4.80;;;6.20;90.90;;;6.70;62.00;98510.47;4981363;28;114109;-83
2022/01/10 05:45:33;;;;;;;9.60;5.10;;;6.20;90.90;;;6.70;62.39;98509.66;4934517;28;113074;-80
2022/01/10 05:48:07;;;;;;;11.27;5.17;;;6.20;91.00;;;6.70;62.05;98507.75;4949137;28;124132;-83
2022/01/10 05:50:36;;;;;;;7.60;5.17;;;6.50;91.10;;;6.66;61.90;98511.34;4951995;28;122836;-79
2022/01/10 05:53:03;;;;;;;8.40;5.10;;;6.10;90.90;;;6.66;62.27;98514.09;4938641;28;115083;-81
2022/01/10 05:55:30;;;;;;;6.50;4.63;;;6.10;90.90;;;6.62;62.08;98509.19;4948074;28;114851;-79
2022/01/10 05:57:56;;;;;;;10.43;5.67;;;6.10;90.90;;;6.63;62.01;98521.81;4948180;28;124373;-82
2022/01/10 06:00:23;;;;;;;16.57;5.80;;;6.10;90.90;;;6.65;62.36;98532.50;4949662;28;123862;-83
2022/01/10 06:02:50;;;;;;;13.70;6.27;;;6.10;90.90;;;6.64;62.57;98550.09;4947737;28;113640;-85
2022/01/10 06:05:16;;;;;;;12.97;5.87;;;6.10;91.00;;;6.64;61.96;98550.91;4947070;28;113972;-82
2022/01/10 06:07:44;;;;;;;5.90;4.70;;;6.10;91.00;;;6.63;62.07;98560.22;4953050;28;122855;-83
2022/01/10 06:10:10;;;;;;;8.77;5.53;;;6.20;91.00;;;6.63;62.01;98557.50;4946695;28;123611;-79
2022/01/10 06:12:37;;;;;;;5.93;4.20;;;6.20;91.10;;;6.64;61.96;98561.88;4951017;28;114179;-83
2022/01/10 06:15:04;;;;;;;9.40;5.27;;;6.20;91.10;;;6.64;61.80;98567.38;4948855;28;114154;-84
2022/01/10 06:17:30;;;;;;;12.13;6.20;;;6.10;91.00;;;6.64;62.68;98569.31;4953598;28;123768;-85
2022/01/10 06:19:59;;;;;;;12.07;5.50;;;6.10;91.00;;;6.64;62.17;98578.34;4954930;28;123760;-87
2022/01/10 06:22:26;;;;;;;12.93;6.20;;;6.30;91.10;;;6.64;62.00;98588.53;4944900;28;114003;-86
2022/01/10 06:24:53;;;;;;;8.30;5.73;;;6.20;91.00;;;6.62;61.81;98591.56;4956016;28;114669;-79
2022/01/10 06:27:19;;;;;;;8.90;5.70;;;6.10;91.00;;;6.62;62.10;98597.03;4949100;28;123671;-85
2022/01/10 06:29:46;;;;;;;8.73;5.60;;;6.10;91.40;;;6.70;62.56;98606.56;4956034;28;124421;-82
2022/01/10 06:32:12;;;;;;;8.97;5.90;;;6.10;91.40;;;6.76;63.28;98610.06;4952499;28;113387;-85
2022/01/10 06:34:39;;;;;;;9.93;6.40;;;6.20;91.50;;;6.74;62.64;98610.34;4949135;28;114211;-82
2022/01/10 06:37:05;;;;;;;9.97;6.03;;;6.30;91.50;;;6.75;63.00;98617.50;4947850;28;124162;-79
2022/01/10 06:39:32;;;;;;;10.80;6.60;;;6.20;91.40;;;6.75;63.20;98627.66;4944062;28;122756;-87
2022/01/10 06:41:58;;;;;;;11.33;6.47;;;6.20;91.50;;;6.73;62.58;98624.38;4948581;28;115367;-86
2022/01/10 06:44:25;;;;;;;10.80;6.77;;;6.20;91.40;;;6.69;63.23;98628.81;4950198;28;114017;-87
2022/01/10 06:46:52;;;;;;;13.87;6.80;;;6.20;91.40;;;6.66;62.67;98632.16;4946508;28;123751;-84
2022/01/10 06:49:20;;;;;;;13.37;6.87;;;6.30;91.40;;;6.63;63.18;98647.25;4929389;28;123567;-85
2022/01/10 06:51:46;;;;;;;10.80;7.47;;;6.10;91.30;;;6.62;63.20;98651.94;4944137;28;113571;-86
2022/01/10 06:54:13;;;;;;;11.70;7.07;;;6.10;91.30;;;6.61;62.87;98650.31;4955775;28;113191;-85
2022/01/10 06:56:40;;;;;;;11.63;6.80;;;6.10;91.40;;;6.59;63.02;98658.00;4941498;28;123819;-85
2022/01/10 06:59:06;;;;;;;9.63;6.10;;;6.10;91.40;;;6.60;63.07;98654.16;4947486;28;123834;-86
2022/01/10 07:01:34;;;;;;;11.90;7.70;;;6.00;91.40;;;6.58;63.04;98666.53;4945629;28;113433;-85
2022/01/10 07:04:00;;;;;;;14.57;7.40;;;6.00;91.40;;;6.55;63.05;98667.94;4948343;28;114154;-86
2022/01/10 07:06:27;;;;;;;17.90;8.40;;;6.20;91.40;;;6.51;62.96;98677.84;4933929;28;123722;-87
2022/01/10 07:08:58;;;;;;;12.30;7.50;;;6.00;91.30;;;6.49;63.55;98677.31;4949341;28;124183;-86
2022/01/10 07:11:24;;;;;;;15.00;7.30;;;6.00;91.30;;;6.47;63.09;98682.28;4954526;28;115342;-86
2022/01/10 07:13:52;;;;;;;15.77;8.33;;;6.00;91.30;;;6.46;62.80;98686.13;4979047;28;113496;-86
2022/01/10 07:16:19;;;;;;;13.90;7.63;;;6.00;91.30;;;6.44;63.09;98699.31;4946509;28;123124;-88
2022/01/10 07:18:45;;;;;;;13.53;8.70;;;6.00;91.30;;;6.42;63.48;98707.00;4945879;28;124359;-85
2022/01/10 07:21:12;;;;;;;26.50;9.90;;;5.90;91.40;;;6.39;62.92;98713.09;4957408;28;114362;-86
2022/01/10 07:23:39;;;;;;;16.93;8.50;;;5.90;91.30;;;6.37;63.69;98707.09;4948503;28;113898;-87
2022/01/10 07:26:05;;;;;;;16.20;8.10;;;5.90;91.40;;;6.36;63.29;98713.66;4951006;28;123718;-87
2022/01/10 07:28:32;;;;;;;12.50;7.93;;;5.90;91.40;;;6.33;63.74;98726.03;4954593;28;123441;-88
2022/01/10 07:30:58;;;;;;;18.90;8.30;;;5.80;91.40;;;6.33;63.29;98730.69;4950630;28;115349;-87
2022/01/10 07:33:26;;;;;;;16.13;8.77;;;5.80;91.50;;;6.34;63.14;98740.56;4949795;28;114721;-88
2022/01/10 07:35:52;;;;;;;16.13;8.87;;;5.80;91.50;;;6.33;63.54;98752.66;4967022;28;123067;-88
2022/01/10 07:38:19;;;;;;;12.80;8.57;;;5.80;91.50;;;6.33;63.56;98763.63;4953314;28;124188;-87
2022/01/10 07:40:45;;;;;;;15.00;8.10;;;5.80;91.60;;;6.31;63.15;98760.34;4953191;28;114572;-88
2022/01/10 07:43:13;;;;;;;14.37;6.90;;;5.80;91.50;;;6.29;63.25;98770.81;4951588;28;114864;-88
2022/01/10 07:45:41;;;;;;;14.77;8.50;;;5.80;91.50;;;6.28;63.61;98769.97;4938694;28;124069;-87
2022/01/10 07:48:10;;;;;;;15.53;7.00;;;5.80;91.50;;;6.28;63.58;98766.41;4971955;28;122813;-87
2022/01/10 07:50:36;;;;;;;11.73;7.20;;;5.80;91.60;;;6.31;63.17;98772.13;4952940;28;113445;-88
2022/01/10 07:53:03;;;;;;;12.10;7.40;;;5.80;91.60;;;6.32;63.51;98770.22;4948896;28;113028;-85
2022/01/10 07:55:29;;;;;;;13.47;7.97;;;5.80;91.60;;;6.33;63.72;98777.34;4959850;28;122952;-86
2022/01/10 07:57:56;;;;;;;14.30;7.27;;;5.80;91.60;;;6.32;63.51;98781.22;4985241;28;123747;-86
2022/01/10 08:00:23;;;;;;;13.40;7.00;;;5.80;91.60;;;6.32;63.53;98787.50;4953074;28;114386;-86
2022/01/10 08:02:49;;;;;;;12.97;7.97;;;5.80;91.60;;;6.31;63.78;98802.31;4963036;28;114661;-87
2022/01/10 08:05:16;;;;;;;15.40;7.30;;;6.40;91.80;;;6.31;63.21;98799.56;4938968;28;123084;-85
2022/01/10 08:07:42;;;;;;;12.47;7.07;;;6.20;91.80;;;6.32;63.35;98812.19;4965368;28;123597;-86
2022/01/10 08:10:09;;;;;;;12.40;7.20;;;5.80;91.60;;;6.32;63.64;98805.91;4956984;28;114363;-87
2022/01/10 08:12:36;;;;;;;13.40;7.40;;;5.80;91.60;;;6.31;63.01;98810.53;4960006;28;113887;-87
2022/01/10 08:15:04;;;;;;;12.30;6.50;;;5.80;91.60;;;6.32;63.40;98819.63;4987839;28;123241;-86
2022/01/10 08:17:31;;;;;;;12.33;6.70;;;5.80;91.60;;;6.33;63.62;98821.25;4957773;28;123912;-84
2022/01/10 08:19:58;;;;;;;10.90;6.70;;;5.80;91.60;;;6.32;63.26;98819.63;4955226;28;114174;-84
2022/01/10 08:22:24;;;;;;;12.00;7.10;;;5.80;91.60;;;6.34;63.54;98826.47;4951700;28;115053;-85
2022/01/10 08:24:52;;;;;;;12.57;7.20;;;5.80;91.60;;;6.36;63.26;98837.13;4954064;28;123968;-86
2022/01/10 08:27:19;;;;;;;11.20;7.40;;;5.80;91.60;;;6.38;63.74;98838.50;4953463;28;122997;-86
2022/01/10 08:29:48;;;;;;;11.60;7.57;;;5.80;91.60;;;6.39;63.43;98839.31;4954144;28;114136;-85
2022/01/10 08:32:16;;;;;;;16.23;8.80;;;5.80;91.60;;;6.39;63.14;98844.81;4952127;28;114028;-83
2022/01/10 08:34:42;;;;;;;13.57;7.77;;;5.80;91.60;;;6.38;63.03;98849.47;4953151;28;123034;-86
2022/01/10 08:37:10;;;;;;;14.60;9.20;;;5.80;91.60;;;6.39;63.02;98844.81;4953211;28;124043;-84
2022/01/10 08:39:37;;;;;;;11.50;7.70;;;5.80;91.60;;;6.38;63.72;98857.72;4937266;28;113558;-86
2022/01/10 08:42:04;;;;;;;14.23;8.07;;;5.80;91.60;;;6.39;63.04;98861.25;4955306;28;112679;-80
2022/01/10 08:44:31;;;;;;;14.03;8.43;;;5.90;91.70;;;6.39;63.15;98866.75;4942165;28;123609;-87
2022/01/10 08:46:57;;;;;;;12.70;7.73;;;5.80;91.60;;;6.40;62.99;98871.97;4939612;28;122853;-84
2022/01/10 08:49:24;;;;;;;14.77;8.13;;;5.90;91.70;;;6.42;63.67;98871.66;4941911;28;112298;-85
2022/01/10 08:51:54;;;;;;;11.47;7.17;;;5.90;91.70;;;6.43;63.00;98883.50;4945884;28;113097;-80
2022/01/10 08:54:22;;;;;;;14.20;8.03;;;5.90;91.70;;;6.44;63.55;98880.44;4933949;28;123352;-82
2022/01/10 08:56:50;;;;;;;17.57;8.17;;;5.90;91.70;;;6.44;63.30;98874.97;4934018;28;122804;-84
2022/01/10 08:59:17;;;;;;;18.50;9.00;;;5.90;91.70;;;6.44;63.77;98890.63;4947952;28;114259;-85
2022/01/10 09:01:46;;;;;;;13.43;9.00;;;5.90;91.70;;;6.44;63.05;98885.94;4949919;28;113943;-85
2022/01/10 09:04:16;;;;;;;15.37;8.77;;;5.90;91.70;;;6.44;62.64;98887.88;4944496;28;123760;-83
2022/01/10 09:06:44;;;;;;;17.73;8.60;;;5.90;91.70;;;6.43;63.41;98897.22;4937535;28;122101;-86
2022/01/10 09:09:12;;;;;;;20.03;9.60;;;6.10;91.70;;;6.40;62.95;98896.66;4946479;28;115020;-86
2022/01/10 09:11:40;;;;;;;13.33;8.17;;;5.90;91.60;;;6.39;63.39;98908.75;4940512;28;115233;-83
2022/01/10 09:14:08;;;;;;;13.90;8.53;;;5.90;91.60;;;6.39;63.06;98911.50;4933436;28;123708;-83
2022/01/10 09:16:35;;;;;;;17.20;9.07;;;5.90;91.70;;;6.42;63.98;98918.31;4942595;28;124125;-88
2022/01/10 09:19:03;;;;;;;13.53;8.10;;;5.90;91.70;;;6.43;62.87;98919.16;4951613;28;114254;-86
2022/01/10 09:21:29;;;;;;;17.90;9.67;;;5.90;91.70;;;6.42;63.70;98926.56;4955129;28;113997;-86
2022/01/10 09:23:57;;;;;;;16.47;8.90;;;5.90;91.70;;;6.43;63.31;98922.72;4943779;28;124031;-81
2022/01/10 09:26:24;;;;;;;17.63;8.70;;;5.90;91.70;;;6.42;63.37;98926.56;4947393;28;124024;-85
2022/01/10 09:28:51;;;;;;;16.23;9.13;;;5.90;91.60;;;6.38;63.13;98928.25;4929727;28;113368;-86
2022/01/10 09:31:18;;;;;;;16.77;9.37;;;5.90;91.60;;;6.37;63.30;98934.84;4940844;28;113758;-80
2022/01/10 09:33:52;;;;;;;12.90;8.40;;;5.80;91.60;;;6.36;63.25;98938.66;4947108;28;123810;-85
2022/01/10 09:36:19;;;;;;;13.97;8.60;;;5.90;91.60;;;6.36;63.45;98944.16;4947279;28;123946;-84
2022/01/10 09:38:46;;;;;;;15.70;8.17;;;5.80;91.60;;;6.39;63.54;98949.09;4947811;28;114246;-85
2022/01/10 09:41:12;;;;;;;16.53;8.70;;;5.90;91.70;;;6.43;63.60;98949.34;4939645;28;113497;-86
2022/01/10 09:43:51;;;;;;;14.90;8.60;;;5.90;91.70;;;6.48;63.41;98952.09;4941882;28;124294;-82
2022/01/10 09:46:18;;;;;;;19.03;8.80;;;5.90;91.70;;;6.50;63.25;98956.19;4951611;28;123778;-82
2022/01/10 09:48:46;;;;;;;16.03;8.83;;;5.90;91.70;;;6.53;62.86;98960.25;4952069;28;114597;-85
2022/01/10 09:51:14;;;;;;;16.30;8.80;;;5.90;91.70;;;6.54;62.87;98962.75;4952664;28;114040;-87
2022/01/10 09:53:45;;;;;;;13.13;8.73;;;6.00;91.70;;;6.57;62.90;98969.59;4956020;28;124061;-83
2022/01/10 09:56:12;;;;;;;15.30;8.70;;;6.00;91.70;;;6.57;63.13;98964.09;4951846;28;123867;-83
2022/01/10 09:58:39;;;;;;;12.37;7.93;;;6.00;91.70;;;6.59;63.31;98975.63;4945377;28;115176;-85
2022/01/10 10:01:06;;;;;;;12.17;7.93;;;6.00;91.70;;;6.62;63.14;98975.06;4964419;28;113849;-82
2022/01/10 10:03:32;;;;;;;11.97;8.70;;;6.00;91.70;;;6.67;63.56;98976.97;4952328;28;124230;-81
2022/01/10 10:05:59;;;;;;;14.83;9.53;;;6.10;91.70;;;6.69;63.20;98978.34;4955205;28;124931;-81
2022/01/10 10:08:27;;;;;;;15.50;10.70;;;6.20;91.80;;;6.71;63.08;98980.78;4939102;28;114161;-83
2022/01/10 10:10:55;;;;;;;21.10;11.80;;;6.10;91.70;;;6.67;63.00;98987.94;4946626;28;113986;-88
2022/01/10 10:13:22;;;;;;;17.13;10.73;;;6.00;91.60;;;6.62;62.81;98994.28;4940713;28;123253;-82
2022/01/10 10:15:49;;;;;;;23.80;9.33;;;6.00;91.60;;;6.62;63.40;98995.09;4946409;28;124193;-87
2022/01/10 10:18:17;;;;;;;19.57;8.70;;;6.00;91.70;;;6.66;62.71;98998.09;4951237;28;114332;-82
2022/01/10 10:20:45;;;;;;;16.50;8.83;;;6.20;91.70;;;6.68;62.52;99011.53;4982048;28;114356;-86
2022/01/10 10:23:15;;;;;;;18.53;10.37;;;6.10;91.60;;;6.68;62.39;99009.63;4949832;28;124608;-86
2022/01/10 10:25:53;;;;;;;13.93;7.93;;;6.10;91.60;;;6.71;62.71;99005.50;4940675;28;123776;-79
2022/01/10 10:28:21;;;;;;;15.57;8.80;;;6.10;91.60;;;6.70;62.79;99007.41;4928882;28;114467;-86
2022/01/10 10:30:48;;;;;;;11.87;7.73;;;6.10;91.50;;;6.71;62.93;99013.72;4949127;28;114341;-86
2022/01/10 10:33:23;;;;;;;13.57;9.03;;;6.10;91.40;;;6.74;62.55;99015.91;4957091;28;124407;-86
2022/01/10 10:36:04;;;;;;;15.13;8.40;;;6.20;91.50;;;6.78;62.64;99008.75;4958455;28;123634;-86
2022/01/10 10:38:30;;;;;;;13.07;9.07;;;6.20;91.50;;;6.81;62.91;99016.44;4948238;28;114293;-84
2022/01/10 10:41:03;;;;;;;11.27;8.60;;;6.50;91.60;;;6.88;62.40;99016.94;4950017;28;113530;-86
2022/01/10 10:43:37;;;;;;;17.27;10.30;;;6.30;91.50;;;6.90;62.70;99020.22;4945463;28;123546;-84